Time;durP1;ratioP1;P1;durP2;ratioP2;P2;SDS_P1;SDS_P2;PMS_P1;PMS_P2;Temp;Humidity;BMP_temperature;BMP_pressure;BME280_temperature;BME280_humidity;BME280_pressure;Samples;Min_cycle;Max_cycle;Signal;HPM_P1;HPM_P2
2021/11/08 00:02:12;;;;;;;128.32;54.15;;;;;;;;;;5044203;28;20504;-53
2021/11/08 00:04:38;;;;;;;111.97;46.00;;;;;;;;;;5043748;28;20028;-52
2021/11/08 00:07:04;;;;;;;132.65;57.70;;;;;;;;;;5044153;28;20025;-52
2021/11/08 00:09:31;;;;;;;120.25;47.88;;;;;;;;;;5046057;28;20017;-51
2021/11/08 00:11:57;;;;;;;145.77;57.45;;;;;;;;;;5040903;28;20033;-52
2021/11/08 00:14:24;;;;;;;137.70;52.15;;;;;;;;;;5043144;28;20104;-52
2021/11/08 00:22:16;;;;;;;175.20;52.50;;;;;;;;;;5041505;28;20052;-51
2021/11/08 00:24:47;;;;;;;167.00;60.88;;;;;;;;;;5036558;28;20029;-51
2021/11/08 00:27:13;;;;;;;132.00;49.42;;;;;;;;;;5042777;28;20480;-51
2021/11/08 00:29:39;;;;;;;140.63;52.58;;;;;;;;;;5049411;28;20025;-51
2021/11/08 00:32:07;;;;;;;149.60;59.65;;;;;;;;;;5052232;28;20025;-51
2021/11/08 00:34:33;;;;;;;145.43;61.83;;;;;;;;;;5049907;28;20074;-52
2021/11/08 00:37:00;;;;;;;124.72;50.05;;;;;;;;;;5048725;28;20029;-52
2021/11/08 00:39:26;;;;;;;153.55;61.85;;;;;;;;;;5052562;28;20051;-52
2021/11/08 00:41:53;;;;;;;156.48;66.85;;;;;;;;;;5050227;28;20029;-54
2021/11/08 00:44:19;;;;;;;130.07;51.55;;;;;;;;;;5043852;28;20017;-52
2021/11/08 00:46:46;;;;;;;138.85;57.47;;;;;;;;;;5042412;28;20033;-52
2021/11/08 00:49:14;;;;;;;141.88;55.00;;;;;;;;;;5039344;28;20029;-52
2021/11/08 00:51:43;;;;;;;140.10;57.08;;;;;;;;;;5040903;28;20042;-52
2021/11/08 00:54:13;;;;;;;142.25;53.70;;;;;;;;;;5035344;28;20064;-53
2021/11/08 00:56:42;;;;;;;138.30;53.80;;;;;;;;;;5035344;28;20390;-53
2021/11/08 00:59:14;;;;;;;165.82;65.03;;;;;;;;;;5035364;28;20390;-53
2021/11/08 01:01:42;;;;;;;177.93;74.32;;;;;;;;;;5034831;28;20017;-53
2021/11/08 01:04:09;;;;;;;165.93;69.43;;;;;;;;;;5034723;28;20032;-53
2021/11/08 01:06:38;;;;;;;164.75;62.03;;;;;;;;;;5039159;28;20096;-53
2021/11/08 01:09:05;;;;;;;149.43;55.80;;;;;;;;;;5055065;28;20028;-54
2021/11/08 01:11:31;;;;;;;157.23;52.97;;;;;;;;;;5054996;28;20029;-54
2021/11/08 01:13:57;;;;;;;130.30;51.60;;;;;;;;;;5053732;28;20028;-53
2021/11/08 01:16:25;;;;;;;159.95;65.22;;;;;;;;;;5054835;28;20047;-54
2021/11/08 01:18:56;;;;;;;161.38;55.33;;;;;;;;;;5054837;28;20025;-54
2021/11/08 01:21:23;;;;;;;115.25;48.40;;;;;;;;;;5054722;28;20021;-53
2021/11/08 01:23:49;;;;;;;140.98;54.15;;;;;;;;;;5054651;28;20515;-54
2021/11/08 01:26:18;;;;;;;144.15;56.60;;;;;;;;;;5054016;28;20021;-54
2021/11/08 01:28:48;;;;;;;133.40;53.17;;;;;;;;;;5054622;28;20477;-53
2021/11/08 01:31:16;;;;;;;139.70;54.45;;;;;;;;;;5054753;28;20021;-53
2021/11/08 01:33:45;;;;;;;154.55;57.63;;;;;;;;;;5054838;28;20021;-53
2021/11/08 01:36:14;;;;;;;150.63;53.90;;;;;;;;;;5054202;28;20363;-53
2021/11/08 01:41:11;;;;;;;164.45;69.18;;;;;;;;;;5054430;28;20021;-54
2021/11/08 01:43:37;;;;;;;146.30;55.75;;;;;;;;;;5054204;28;20052;-53
2021/11/08 01:46:04;;;;;;;169.68;63.95;;;;;;;;;;5053654;28;20020;-54
2021/11/08 01:48:31;;;;;;;163.00;63.17;;;;;;;;;;5054189;28;20025;-52
2021/11/08 01:50:57;;;;;;;140.52;53.95;;;;;;;;;;5053996;28;20052;-54
2021/11/08 01:53:24;;;;;;;139.02;57.88;;;;;;;;;;5054365;28;20120;-53
2021/11/08 01:55:51;;;;;;;118.15;48.35;;;;;;;;;;5054390;28;20075;-54
2021/11/08 01:58:20;;;;;;;146.70;59.55;;;;;;;;;;5053982;28;20033;-53
2021/11/08 02:00:46;;;;;;;147.65;63.45;;;;;;;;;;5054139;28;20473;-54
2021/11/08 02:03:12;;;;;;;143.73;60.97;;;;;;;;;;5054076;28;20028;-53
2021/11/08 02:05:38;;;;;;;131.25;53.28;;;;;;;;;;5053203;28;20017;-53
2021/11/08 02:08:04;;;;;;;132.75;49.20;;;;;;;;;;5053620;28;20029;-53
2021/11/08 02:10:30;;;;;;;151.20;62.85;;;;;;;;;;5052774;28;20025;-53
2021/11/08 02:12:57;;;;;;;142.75;61.55;;;;;;;;;;5053148;28;20021;-53
2021/11/08 02:15:23;;;;;;;130.90;54.10;;;;;;;;;;5053751;28;20021;-53
2021/11/08 02:17:49;;;;;;;159.48;68.38;;;;;;;;;;5053686;28;20036;-53
2021/11/08 02:20:20;;;;;;;149.57;64.55;;;;;;;;;;5053698;28;20036;-53
2021/11/08 02:22:49;;;;;;;151.35;66.60;;;;;;;;;;5053635;28;20067;-55
2021/11/08 02:25:16;;;;;;;138.73;58.22;;;;;;;;;;5053155;28;20100;-53
2021/11/08 02:27:43;;;;;;;136.95;55.58;;;;;;;;;;5053294;28;20071;-51
2021/11/08 02:30:10;;;;;;;123.25;52.83;;;;;;;;;;5053601;28;20079;-56
2021/11/08 02:32:37;;;;;;;145.38;64.60;;;;;;;;;;5053524;28;20025;-55
2021/11/08 02:35:05;;;;;;;137.50;61.65;;;;;;;;;;5053442;28;20385;-58
2021/11/08 02:37:32;;;;;;;122.10;55.95;;;;;;;;;;5052365;28;20044;-57
2021/11/08 02:40:02;;;;;;;122.30;54.20;;;;;;;;;;5053440;28;20025;-57
2021/11/08 02:42:28;;;;;;;129.70;55.30;;;;;;;;;;5053387;28;20480;-58
2021/11/08 02:44:55;;;;;;;132.98;59.08;;;;;;;;;;5053339;28;20034;-57
2021/11/08 02:47:22;;;;;;;126.57;56.70;;;;;;;;;;5053290;28;20100;-57
2021/11/08 02:49:50;;;;;;;117.72;54.70;;;;;;;;;;5053013;28;20068;-57
2021/11/08 02:52:20;;;;;;;115.75;51.50;;;;;;;;;;5053324;28;20068;-57
2021/11/08 02:54:50;;;;;;;134.23;60.58;;;;;;;;;;5053339;28;20021;-53
2021/11/08 02:57:18;;;;;;;131.35;58.67;;;;;;;;;;5053390;28;20060;-57
2021/11/08 02:59:46;;;;;;;127.80;57.13;;;;;;;;;;5053428;28;20050;-54
2021/11/08 03:02:14;;;;;;;118.53;53.08;;;;;;;;;;5053407;28;20493;-56
2021/11/08 03:04:47;;;;;;;126.10;54.33;;;;;;;;;;5053347;28;20033;-56
2021/11/08 03:07:13;;;;;;;113.78;52.03;;;;;;;;;;5051887;28;20052;-54
2021/11/08 03:09:51;;;;;;;136.80;58.88;;;;;;;;;;5052974;28;20048;-56
2021/11/08 03:12:26;;;;;;;154.88;69.05;;;;;;;;;;5053334;28;20396;-56
2021/11/08 03:17:45;;;;;;;124.65;59.45;;;;;;;;;;5052994;28;20039;-56
2021/11/08 03:20:13;;;;;;;131.45;60.42;;;;;;;;;;5052815;28;20021;-56
2021/11/08 03:22:47;;;;;;;123.50;55.83;;;;;;;;;;5053058;28;20021;-56
2021/11/08 03:27:53;;;;;;;120.75;55.85;;;;;;;;;;5056890;28;20112;-55
2021/11/08 03:30:22;;;;;;;123.03;54.35;;;;;;;;;;5057025;28;20021;-54
2021/11/08 03:32:50;;;;;;;130.30;53.78;;;;;;;;;;5056694;28;20443;-55
2021/11/08 03:35:19;;;;;;;131.55;55.80;;;;;;;;;;5056627;28;20048;-54
2021/11/08 03:37:48;;;;;;;152.27;59.90;;;;;;;;;;5056628;28;20044;-56
2021/11/08 03:40:18;;;;;;;155.98;60.10;;;;;;;;;;5056654;28;20079;-57
2021/11/08 03:42:44;;;;;;;138.82;59.28;;;;;;;;;;5056569;28;20033;-56
2021/11/08 03:45:11;;;;;;;137.90;59.90;;;;;;;;;;5056571;28;20013;-57
2021/11/08 03:47:38;;;;;;;132.63;56.10;;;;;;;;;;5056532;28;20040;-55
2021/11/08 03:50:05;;;;;;;143.35;57.58;;;;;;;;;;5056173;28;20033;-52
2021/11/08 03:52:32;;;;;;;143.48;58.95;;;;;;;;;;5056376;28;20033;-54
2021/11/08 03:54:58;;;;;;;135.60;59.97;;;;;;;;;;5056369;28;20017;-53
2021/11/08 03:57:27;;;;;;;136.63;59.83;;;;;;;;;;5056235;28;20124;-58
2021/11/08 03:59:54;;;;;;;126.13;54.90;;;;;;;;;;5056410;28;20028;-58
2021/11/08 04:02:21;;;;;;;134.00;58.22;;;;;;;;;;5056228;28;20028;-56
2021/11/08 04:04:47;;;;;;;132.02;58.40;;;;;;;;;;5056392;28;20079;-56
2021/11/08 04:07:16;;;;;;;125.78;53.45;;;;;;;;;;5056099;28;20025;-57
2021/11/08 04:09:43;;;;;;;131.27;55.80;;;;;;;;;;5056189;28;20039;-57
2021/11/08 04:12:09;;;;;;;122.30;54.63;;;;;;;;;;5056093;28;20055;-57
2021/11/08 04:14:37;;;;;;;128.75;54.63;;;;;;;;;;5056049;28;20028;-53
2021/11/08 04:17:04;;;;;;;117.95;54.53;;;;;;;;;;5055866;28;20055;-57
2021/11/08 04:19:32;;;;;;;132.43;57.38;;;;;;;;;;5055838;28;20018;-57
2021/11/08 04:22:00;;;;;;;128.80;56.28;;;;;;;;;;5055725;28;20087;-57
2021/11/08 04:24:29;;;;;;;125.88;55.38;;;;;;;;;;5056015;28;20025;-57
2021/11/08 04:26:55;;;;;;;127.88;57.25;;;;;;;;;;5055853;28;20025;-53
2021/11/08 04:29:23;;;;;;;133.90;56.83;;;;;;;;;;5055754;28;20477;-57
2021/11/08 04:31:50;;;;;;;136.60;56.33;;;;;;;;;;5055758;28;20017;-53
2021/11/08 04:34:29;;;;;;;123.13;54.78;;;;;;;;;;5056017;28;20461;-57
2021/11/08 04:42:36;;;;;;;116.80;54.90;;;;;;;;;;5055422;28;20032;-56
2021/11/08 05:20:56;;;;;;;103.50;51.30;;;;;;;;;;5055367;28;20508;-58
2021/11/08 05:31:52;;;;;;;94.88;48.53;;;;;;;;;;4916532;29;20130;-57
2021/11/08 05:34:18;;;;;;;90.90;47.33;;;;;;;;;;4916517;29;20036;-57
2021/11/08 05:36:45;;;;;;;90.03;47.88;;;;;;;;;;4916264;29;20422;-58
2021/11/08 05:39:14;;;;;;;97.65;48.47;;;;;;;;;;4916349;29;20050;-57
2021/11/08 05:41:41;;;;;;;83.40;45.72;;;;;;;;;;4916338;29;20059;-58
2021/11/08 05:44:08;;;;;;;87.97;46.67;;;;;;;;;;4916370;29;20036;-58
2021/11/08 05:46:35;;;;;;;90.35;46.78;;;;;;;;;;4916365;29;20109;-58
2021/11/08 05:49:02;;;;;;;82.53;45.60;;;;;;;;;;4916171;29;20039;-57
2021/11/08 05:51:28;;;;;;;84.32;45.10;;;;;;;;;;4915845;29;20052;-57
2021/11/08 05:53:54;;;;;;;86.55;46.15;;;;;;;;;;4920015;29;20044;-57
2021/11/08 05:56:47;;;;;;;92.80;47.92;;;;;;;;;;4935201;29;20040;-57
2021/11/08 06:50:59;;;;;;;94.00;56.90;;;;;;;;;;5031319;28;20536;-57
2021/11/08 06:53:26;;;;;;;93.22;56.70;;;;;;;;;;5031502;28;20110;-54
2021/11/08 06:55:53;;;;;;;87.97;53.92;;;;;;;;;;5031402;28;20032;-56
2021/11/08 06:58:22;;;;;;;81.32;50.13;;;;;;;;;;5047258;28;20519;-55
2021/11/08 07:00:49;;;;;;;80.25;48.35;;;;;;;;;;5053142;28;20082;-57
2021/11/08 07:03:15;;;;;;;74.40;46.63;;;;;;;;;;5053185;28;20031;-56
2021/11/08 07:05:42;;;;;;;79.20;48.85;;;;;;;;;;5053136;28;20104;-56
2021/11/08 07:08:10;;;;;;;69.78;46.05;;;;;;;;;;5053133;28;20104;-56
2021/11/08 07:10:37;;;;;;;64.97;43.08;;;;;;;;;;5053071;28;20043;-56
2021/11/08 07:13:06;;;;;;;75.93;48.40;;;;;;;;;;5053267;28;20021;-57
2021/11/08 07:15:32;;;;;;;74.10;45.13;;;;;;;;;;5053325;28;20018;-57
2021/11/08 07:17:58;;;;;;;73.43;45.03;;;;;;;;;;5053082;28;20056;-56
2021/11/08 07:20:25;;;;;;;69.82;42.45;;;;;;;;;;5052877;28;20028;-57
2021/11/08 07:22:51;;;;;;;70.57;44.45;;;;;;;;;;5052778;28;20041;-53
2021/11/08 07:25:18;;;;;;;69.28;42.50;;;;;;;;;;5052453;28;20377;-57
2021/11/08 07:27:44;;;;;;;79.85;47.95;;;;;;;;;;5052529;28;20021;-54
2021/11/08 07:30:11;;;;;;;75.35;44.72;;;;;;;;;;5052400;28;20036;-57
2021/11/08 07:32:37;;;;;;;76.10;46.28;;;;;;;;;;5052248;28;20029;-57
2021/11/08 07:35:04;;;;;;;71.40;45.83;;;;;;;;;;5052294;28;20581;-56
2021/11/08 07:37:31;;;;;;;74.15;48.38;;;;;;;;;;5052218;28;20029;-55
2021/11/08 07:39:57;;;;;;;71.05;44.65;;;;;;;;;;5052388;28;20377;-54
2021/11/08 07:42:23;;;;;;;70.60;44.92;;;;;;;;;;5052392;28;20020;-57
2021/11/08 07:44:50;;;;;;;66.18;41.20;;;;;;;;;;5051041;28;20044;-57
2021/11/08 07:47:17;;;;;;;64.32;41.72;;;;;;;;;;5052146;28;20013;-54
2021/11/08 07:49:43;;;;;;;69.22;42.83;;;;;;;;;;5052122;28;20377;-54
2021/11/08 07:52:09;;;;;;;75.13;44.88;;;;;;;;;;5052211;28;20047;-54
2021/11/08 07:54:38;;;;;;;71.13;43.25;;;;;;;;;;5052094;28;20067;-52
2021/11/08 07:57:05;;;;;;;70.05;42.10;;;;;;;;;;5052145;28;20461;-54
2021/11/08 07:59:31;;;;;;;67.60;42.10;;;;;;;;;;5052117;28;20028;-53
2021/11/08 08:01:58;;;;;;;71.45;45.60;;;;;;;;;;5051942;28;20025;-54
2021/11/08 08:04:24;;;;;;;62.88;39.13;;;;;;;;;;5052062;28;20053;-53
2021/11/08 08:06:51;;;;;;;55.10;34.65;;;;;;;;;;5052439;28;20396;-57
2021/11/08 08:09:18;;;;;;;52.75;35.03;;;;;;;;;;5052555;28;20025;-57
2021/11/08 08:11:44;;;;;;;53.40;33.60;;;;;;;;;;5054509;28;20071;-56
2021/11/08 08:14:11;;;;;;;60.88;38.92;;;;;;;;;;5056239;28;20186;-54
2021/11/08 08:16:37;;;;;;;57.22;34.10;;;;;;;;;;5055456;28;20062;-57
2021/11/08 08:19:03;;;;;;;68.13;39.72;;;;;;;;;;5055541;28;20069;-58
2021/11/08 08:21:30;;;;;;;73.15;45.00;;;;;;;;;;5055074;28;20105;-58
2021/11/08 08:23:58;;;;;;;69.28;41.75;;;;;;;;;;5055458;28;20465;-58
2021/11/08 08:26:29;;;;;;;67.47;39.35;;;;;;;;;;5055372;28;20120;-56
2021/11/08 08:29:03;;;;;;;100.95;60.92;;;;;;;;;;5054847;28;20017;-56
2021/11/08 08:31:32;;;;;;;63.05;40.40;;;;;;;;;;5055785;28;20052;-55
2021/11/08 08:33:59;;;;;;;76.25;44.25;;;;;;;;;;5055680;28;20401;-54
2021/11/08 08:36:25;;;;;;;86.18;50.38;;;;;;;;;;5055805;28;20033;-53
2021/11/08 08:38:54;;;;;;;78.00;44.83;;;;;;;;;;5055495;28;20040;-54
2021/11/08 08:41:20;;;;;;;81.32;48.10;;;;;;;;;;5055533;28;20019;-56
2021/11/08 08:43:46;;;;;;;84.72;49.10;;;;;;;;;;5055470;28;20469;-59
2021/11/08 08:46:13;;;;;;;85.90;49.50;;;;;;;;;;5055477;28;20025;-57
2021/11/08 08:48:40;;;;;;;79.60;41.65;;;;;;;;;;5055469;28;20332;-57
2021/11/08 08:51:07;;;;;;;76.90;42.85;;;;;;;;;;5055421;28;20076;-56
2021/11/08 08:53:33;;;;;;;67.32;37.72;;;;;;;;;;5055232;28;20025;-53
2021/11/08 08:56:01;;;;;;;77.10;44.45;;;;;;;;;;5055380;28;20107;-55
2021/11/08 08:58:30;;;;;;;92.25;46.67;;;;;;;;;;5055131;28;20029;-56
2021/11/08 09:00:56;;;;;;;85.10;46.33;;;;;;;;;;5055352;28;20036;-55
2021/11/08 09:03:23;;;;;;;90.18;47.60;;;;;;;;;;5053489;28;20029;-55
2021/11/08 09:05:49;;;;;;;65.35;36.80;;;;;;;;;;5055164;28;20024;-55
2021/11/08 09:08:16;;;;;;;90.75;50.22;;;;;;;;;;5054937;28;20024;-52
2021/11/08 09:10:42;;;;;;;85.32;46.10;;;;;;;;;;5054952;28;20025;-55
2021/11/08 09:13:14;;;;;;;82.13;42.80;;;;;;;;;;5054964;28;20465;-56
2021/11/08 09:15:41;;;;;;;90.15;48.88;;;;;;;;;;5055146;28;20451;-58
2021/11/08 09:18:07;;;;;;;93.43;50.72;;;;;;;;;;5054861;28;20114;-58
2021/11/08 09:20:35;;;;;;;81.65;38.38;;;;;;;;;;5055005;28;20021;-58
2021/11/08 09:23:01;;;;;;;185.63;92.70;;;;;;;;;;5052991;28;20084;-57
2021/11/08 09:25:28;;;;;;;130.60;64.70;;;;;;;;;;5053972;28;20024;-52
2021/11/08 09:27:57;;;;;;;99.57;55.88;;;;;;;;;;5054103;28;20021;-53
2021/11/08 09:30:25;;;;;;;118.75;60.92;;;;;;;;;;5053405;28;20028;-52
2021/11/08 09:32:52;;;;;;;88.57;42.17;;;;;;;;;;5054119;28;20025;-53
2021/11/08 09:35:18;;;;;;;167.20;70.93;;;;;;;;;;5053918;28;20033;-53
2021/11/08 09:37:48;;;;;;;54.60;27.67;;;;;;;;;;5053884;28;20021;-54
2021/11/08 09:40:24;;;;;;;138.82;61.67;;;;;;;;;;5053991;28;20082;-56
2021/11/08 09:42:52;;;;;;;100.07;48.65;;;;;;;;;;5052632;28;20039;-55
2021/11/08 09:45:18;;;;;;;74.28;34.85;;;;;;;;;;5050593;28;20017;-55
2021/11/08 09:47:46;;;;;;;135.05;59.25;;;;;;;;;;5052628;28;20040;-56
2021/11/08 09:50:13;;;;;;;127.25;59.28;;;;;;;;;;5052207;28;20033;-54
2021/11/08 09:52:41;;;;;;;54.53;31.27;;;;;;;;;;5053378;28;20021;-57
2021/11/08 09:55:09;;;;;;;121.72;56.35;;;;;;;;;;5054287;28;20025;-55
2021/11/08 09:57:35;;;;;;;44.92;25.33;;;;;;;;;;5054177;28;20025;-52
2021/11/08 10:00:03;;;;;;;52.33;29.75;;;;;;;;;;5054102;28;20029;-51
2021/11/08 10:02:29;;;;;;;36.65;19.90;;;;;;;;;;5054044;28;20044;-52
2021/11/08 10:04:57;;;;;;;31.88;18.67;;;;;;;;;;5054313;28;20453;-54
2021/11/08 10:07:24;;;;;;;60.08;30.92;;;;;;;;;;5052352;28;20130;-55
2021/11/08 10:09:50;;;;;;;38.97;20.67;;;;;;;;;;5052055;28;20029;-52
2021/11/08 10:12:18;;;;;;;87.38;40.97;;;;;;;;;;5052943;28;20037;-57
2021/11/08 10:14:44;;;;;;;90.55;42.42;;;;;;;;;;5053823;28;20408;-55
2021/11/08 10:17:10;;;;;;;37.85;20.60;;;;;;;;;;5053845;28;20036;-54
2021/11/08 10:19:40;;;;;;;65.88;32.33;;;;;;;;;;5053695;28;20044;-54
2021/11/08 10:22:07;;;;;;;37.05;23.08;;;;;;;;;;5053439;28;20143;-54
2021/11/08 10:24:34;;;;;;;63.58;33.50;;;;;;;;;;5053710;28;20043;-51
2021/11/08 10:27:02;;;;;;;72.95;37.35;;;;;;;;;;5053250;28;20112;-50
2021/11/08 10:29:28;;;;;;;70.22;35.53;;;;;;;;;;5052859;28;20028;-51
2021/11/08 10:31:56;;;;;;;181.75;103.50;;;;;;;;;;5053486;28;20544;-56
2021/11/08 10:34:23;;;;;;;97.03;48.85;;;;;;;;;;5052347;28;20068;-56
2021/11/08 10:36:57;;;;;;;46.75;25.63;;;;;;;;;;5053173;28;20028;-54
2021/11/08 10:39:23;;;;;;;62.20;31.90;;;;;;;;;;5053150;28;20086;-58
2021/11/08 10:41:49;;;;;;;68.53;34.60;;;;;;;;;;5053412;28;20032;-55
2021/11/08 10:44:22;;;;;;;52.05;26.58;;;;;;;;;;5043316;28;20999;-56
2021/11/08 10:47:07;;;;;;;157.27;68.60;;;;;;;;;;5025962;28;20112;-59
2021/11/08 10:49:42;;;;;;;68.30;33.20;;;;;;;;;;5025850;28;20032;-58
2021/11/08 10:52:14;;;;;;;65.82;32.33;;;;;;;;;;5026583;28;20912;-57
2021/11/08 10:54:53;;;;;;;32.70;17.60;;;;;;;;;;5026414;28;20048;-56
2021/11/08 10:57:22;;;;;;;42.53;22.30;;;;;;;;;;5026041;28;20062;-57
2021/11/08 10:59:49;;;;;;;102.20;47.53;;;;;;;;;;5025962;28;20823;-57
2021/11/08 11:02:28;;;;;;;73.85;38.38;;;;;;;;;;5025831;28;20021;-59
2021/11/08 11:04:58;;;;;;;61.30;30.63;;;;;;;;;;5025967;28;20025;-56
2021/11/08 11:07:32;;;;;;;79.07;39.90;;;;;;;;;;5025551;28;20028;-60
2021/11/08 11:10:08;;;;;;;90.53;45.72;;;;;;;;;;5025879;28;20547;-60
2021/11/08 11:12:35;;;;;;;33.30;17.67;;;;;;;;;;5025911;28;20033;-56
2021/11/08 11:15:08;;;;;;;55.78;28.92;;;;;;;;;;5024357;28;20045;-54
2021/11/08 11:17:41;;;;;;;68.38;38.65;;;;;;;;;;5025127;28;20068;-55
2021/11/08 11:20:09;;;;;;;51.85;25.70;;;;;;;;;;5025891;28;20076;-57
2021/11/08 11:22:38;;;;;;;57.33;30.30;;;;;;;;;;5025531;28;20424;-57
2021/11/08 11:25:09;;;;;;;37.42;20.98;;;;;;;;;;5025981;28;20059;-55
2021/11/08 11:27:38;;;;;;;30.20;16.70;;;;;;;;;;5025404;28;20548;-55
2021/11/08 11:30:10;;;;;;;55.15;29.58;;;;;;;;;;5025667;28;20025;-53
2021/11/08 11:32:36;;;;;;;22.67;12.02;;;;;;;;;;5025977;28;20025;-54
2021/11/08 11:35:03;;;;;;;62.45;35.70;;;;;;;;;;5025735;28;20528;-57
2021/11/08 11:37:32;;;;;;;33.08;20.13;;;;;;;;;;5025798;28;20033;-56
2021/11/08 11:40:12;;;;;;;33.17;18.58;;;;;;;;;;5025660;28;20033;-57
2021/11/08 11:42:45;;;;;;;22.30;13.63;;;;;;;;;;5025618;28;21059;-56
2021/11/08 11:45:11;;;;;;;29.90;16.90;;;;;;;;;;5026807;28;20028;-56
2021/11/08 11:47:41;;;;;;;33.38;18.27;;;;;;;;;;5029072;28;20040;-57
2021/11/08 11:50:08;;;;;;;41.85;23.33;;;;;;;;;;5028766;28;20041;-55
2021/11/08 11:52:41;;;;;;;21.90;13.57;;;;;;;;;;5029280;28;20150;-58
2021/11/08 11:55:07;;;;;;;45.45;22.75;;;;;;;;;;5029442;28;20466;-56
2021/11/08 11:57:33;;;;;;;58.78;34.38;;;;;;;;;;5029748;28;20017;-56
2021/11/08 12:00:00;;;;;;;72.60;40.42;;;;;;;;;;5029194;28;20040;-56
2021/11/08 12:02:26;;;;;;;66.13;36.67;;;;;;;;;;5029896;28;20024;-58
2021/11/08 12:04:52;;;;;;;34.67;19.75;;;;;;;;;;5029208;28;20028;-53
2021/11/08 12:07:19;;;;;;;24.23;13.90;;;;;;;;;;5029310;28;20032;-55
2021/11/08 12:09:45;;;;;;;20.80;11.48;;;;;;;;;;5028286;28;20044;-54
2021/11/08 12:12:21;;;;;;;20.90;12.35;;;;;;;;;;5028779;28;20119;-54
2021/11/08 12:14:55;;;;;;;26.27;14.27;;;;;;;;;;5027965;28;20111;-56
2021/11/08 12:17:21;;;;;;;33.88;21.15;;;;;;;;;;5029203;28;20037;-58
2021/11/08 12:19:47;;;;;;;43.30;25.20;;;;;;;;;;5028752;28;20105;-55
2021/11/08 12:22:15;;;;;;;27.75;14.93;;;;;;;;;;5028683;28;20033;-57
2021/11/08 12:24:42;;;;;;;32.25;21.65;;;;;;;;;;5028932;28;20552;-57
2021/11/08 12:27:10;;;;;;;43.40;22.27;;;;;;;;;;5028355;28;20035;-56
2021/11/08 12:29:49;;;;;;;30.38;15.63;;;;;;;;;;5036328;28;20028;-63
2021/11/08 12:32:15;;;;;;;37.08;19.77;;;;;;;;;;5056080;28;20522;-61
2021/11/08 12:34:50;;;;;;;66.93;33.88;;;;;;;;;;5055927;28;20155;-61
2021/11/08 12:37:20;;;;;;;28.75;14.23;;;;;;;;;;5055726;28;20067;-61
2021/11/08 12:39:59;;;;;;;27.10;15.20;;;;;;;;;;5055598;28;20029;-61
2021/11/08 12:42:35;;;;;;;31.50;16.08;;;;;;;;;;5055837;28;20439;-62
2021/11/08 12:45:10;;;;;;;26.60;13.73;;;;;;;;;;5055699;28;20071;-58
2021/11/08 12:47:36;;;;;;;16.48;8.75;;;;;;;;;;5055559;28;20493;-60
2021/11/08 12:50:03;;;;;;;14.23;7.20;;;;;;;;;;5055305;28;20094;-62
2021/11/08 12:52:34;;;;;;;24.08;11.80;;;;;;;;;;5055799;28;20033;-59
2021/11/08 12:55:14;;;;;;;16.80;9.23;;;;;;;;;;5055686;28;20033;-58
2021/11/08 12:57:51;;;;;;;21.67;12.93;;;;;;;;;;5055249;28;20104;-63
2021/11/08 13:00:22;;;;;;;25.08;12.38;;;;;;;;;;5055199;28;20119;-60
2021/11/08 13:02:56;;;;;;;19.53;10.27;;;;;;;;;;5055624;28;20500;-60
2021/11/08 13:05:32;;;;;;;15.98;9.23;;;;;;;;;;5055391;28;20103;-60
2021/11/08 13:07:59;;;;;;;17.10;10.48;;;;;;;;;;5055239;28;20035;-62
2021/11/08 13:10:25;;;;;;;14.73;8.70;;;;;;;;;;5055194;28;20020;-60
2021/11/08 13:12:52;;;;;;;13.40;7.82;;;;;;;;;;5055105;28;20021;-60
2021/11/08 13:15:19;;;;;;;15.90;8.68;;;;;;;;;;5070534;28;20439;-63
2021/11/08 13:17:51;;;;;;;14.85;9.35;;;;;;;;;;5055243;28;20044;-58
2021/11/08 13:20:19;;;;;;;16.33;10.07;;;;;;;;;;5055152;28;20458;-63
2021/11/08 13:22:46;;;;;;;13.70;8.63;;;;;;;;;;5054948;28;20469;-60
2021/11/08 13:25:24;;;;;;;16.90;8.00;;;;;;;;;;5054999;28;20100;-55
2021/11/08 13:27:51;;;;;;;14.75;7.72;;;;;;;;;;5054879;28;20508;-59
2021/11/08 13:30:24;;;;;;;16.10;9.27;;;;;;;;;;5054681;28;20025;-61
2021/11/08 13:32:51;;;;;;;18.90;12.68;;;;;;;;;;5054655;28;20029;-60
2021/11/08 13:35:25;;;;;;;16.73;11.38;;;;;;;;;;5055057;28;20027;-60
2021/11/08 13:38:03;;;;;;;29.70;17.27;;;;;;;;;;5054699;28;20602;-61
2021/11/08 13:40:30;;;;;;;21.67;12.30;;;;;;;;;;5054584;28;20037;-60
2021/11/08 13:43:05;;;;;;;15.57;8.85;;;;;;;;;;5054955;28;20049;-59
2021/11/08 13:45:31;;;;;;;18.30;9.57;;;;;;;;;;5054472;28;20021;-62
2021/11/08 13:47:58;;;;;;;21.95;9.05;;;;;;;;;;5054766;28;20150;-62
2021/11/08 13:50:25;;;;;;;17.60;10.52;;;;;;;;;;5054190;28;20049;-63
2021/11/08 13:52:55;;;;;;;27.48;16.92;;;;;;;;;;5054578;28;20032;-61
2021/11/08 13:55:21;;;;;;;23.23;15.15;;;;;;;;;;5054252;28;20032;-61
2021/11/08 13:57:50;;;;;;;18.88;12.05;;;;;;;;;;5054545;28;20082;-60
2021/11/08 14:00:17;;;;;;;18.27;11.35;;;;;;;;;;5054622;28;20138;-60
2021/11/08 14:02:44;;;;;;;21.30;11.07;;;;;;;;;;5054208;28;20025;-62
2021/11/08 14:05:11;;;;;;;21.75;12.57;;;;;;;;;;5054142;28;20021;-61
2021/11/08 14:07:38;;;;;;;29.65;15.25;;;;;;;;;;5053872;28;20477;-59
2021/11/08 14:10:09;;;;;;;25.58;13.60;;;;;;;;;;5052361;28;20021;-60
2021/11/08 14:12:35;;;;;;;39.67;20.90;;;;;;;;;;5053181;28;20068;-61
2021/11/08 14:15:01;;;;;;;56.58;29.13;;;;;;;;;;5053499;28;20029;-56
2021/11/08 14:17:32;;;;;;;43.58;22.05;;;;;;;;;;5053139;28;20401;-58
2021/11/08 14:19:59;;;;;;;67.13;31.50;;;;;;;;;;5053232;28;20055;-59
2021/11/08 14:22:26;;;;;;;55.78;25.38;;;;;;;;;;5053299;28;20029;-61
2021/11/08 14:24:54;;;;;;;41.17;19.38;;;;;;;;;;5053037;28;20028;-61
2021/11/08 14:27:21;;;;;;;26.20;13.35;;;;;;;;;;5053179;28;20057;-61
2021/11/08 14:29:48;;;;;;;23.00;11.25;;;;;;;;;;5053179;28;20024;-59
2021/11/08 14:32:19;;;;;;;24.95;13.70;;;;;;;;;;5053678;28;20150;-62
2021/11/08 14:37:37;;;;;;;20.80;12.43;;;;;;;;;;5051188;28;20025;-63
2021/11/08 14:40:11;;;;;;;27.70;13.57;;;;;;;;;;5050165;28;20465;-61
2021/11/08 14:42:38;;;;;;;17.58;10.13;;;;;;;;;;5052425;28;20098;-62
2021/11/08 14:45:04;;;;;;;18.73;10.18;;;;;;;;;;5052426;28;20094;-57
2021/11/08 14:47:33;;;;;;;23.33;12.07;;;;;;;;;;5052532;28;20017;-62
2021/11/08 14:50:16;;;;;;;25.30;12.65;;;;;;;;;;5050368;28;20045;-62
2021/11/08 14:52:47;;;;;;;26.38;14.05;;;;;;;;;;5050943;28;20028;-61
2021/11/08 14:55:15;;;;;;;22.55;12.52;;;;;;;;;;5052628;28;20055;-62
2021/11/08 14:57:44;;;;;;;19.13;11.85;;;;;;;;;;5052742;28;20028;-61
2021/11/08 15:00:18;;;;;;;19.98;10.95;;;;;;;;;;5052673;28;20489;-61
2021/11/08 15:02:45;;;;;;;26.65;16.83;;;;;;;;;;5050135;28;20158;-61
2021/11/08 15:05:14;;;;;;;24.88;11.82;;;;;;;;;;5052729;28;20469;-60
2021/11/08 15:07:42;;;;;;;20.17;10.85;;;;;;;;;;5053101;28;20444;-62
2021/11/08 15:10:10;;;;;;;21.73;10.73;;;;;;;;;;5052862;28;20028;-61
2021/11/08 15:12:40;;;;;;;23.23;11.93;;;;;;;;;;5052896;28;20017;-62
2021/11/08 15:15:10;;;;;;;23.55;12.75;;;;;;;;;;5051340;28;20024;-61
2021/11/08 15:17:48;;;;;;;27.92;13.75;;;;;;;;;;5051383;28;20078;-57
2021/11/08 15:20:14;;;;;;;26.70;13.95;;;;;;;;;;5052383;28;20051;-61
2021/11/08 15:22:41;;;;;;;26.23;16.13;;;;;;;;;;5055810;28;20048;-59
2021/11/08 15:25:12;;;;;;;35.67;16.90;;;;;;;;;;5054656;28;20029;-57
2021/11/08 15:27:40;;;;;;;36.92;17.67;;;;;;;;;;5036824;28;20030;-59
2021/11/08 15:30:07;;;;;;;35.38;19.55;;;;;;;;;;5026049;28;20036;-60
2021/11/08 15:32:33;;;;;;;31.50;19.58;;;;;;;;;;5025804;28;20048;-56
2021/11/08 15:35:13;;;;;;;38.05;20.55;;;;;;;;;;5025873;28;20093;-58
2021/11/08 15:37:52;;;;;;;45.47;23.00;;;;;;;;;;5025854;28;20202;-58
2021/11/08 15:40:19;;;;;;;38.95;23.75;;;;;;;;;;5025448;28;20033;-57
2021/11/08 15:42:45;;;;;;;39.03;23.70;;;;;;;;;;5025817;28;20128;-57
2021/11/08 15:45:11;;;;;;;40.00;23.88;;;;;;;;;;5025302;28;20064;-57
2021/11/08 15:47:37;;;;;;;45.25;23.90;;;;;;;;;;5025627;28;20018;-57
2021/11/08 15:50:04;;;;;;;42.10;23.77;;;;;;;;;;5023452;28;20033;-60
2021/11/08 15:52:33;;;;;;;38.97;24.50;;;;;;;;;;5025268;28;20029;-57
2021/11/08 15:54:59;;;;;;;41.97;23.85;;;;;;;;;;5025060;28;20407;-60
2021/11/08 15:57:25;;;;;;;49.22;24.48;;;;;;;;;;5026997;28;20728;-56
2021/11/08 15:59:55;;;;;;;48.10;23.67;;;;;;;;;;5025263;28;20044;-57
2021/11/08 16:02:24;;;;;;;39.30;23.02;;;;;;;;;;5028004;28;20049;-56
2021/11/08 16:04:50;;;;;;;55.40;26.23;;;;;;;;;;5025883;28;20029;-60
2021/11/08 16:07:16;;;;;;;55.80;29.23;;;;;;;;;;5028480;28;20029;-59
2021/11/08 16:09:44;;;;;;;54.72;27.92;;;;;;;;;;5028906;28;20025;-60
2021/11/08 16:12:10;;;;;;;57.70;29.92;;;;;;;;;;5027830;28;20150;-59
2021/11/08 16:14:37;;;;;;;65.22;32.78;;;;;;;;;;5025653;28;20064;-56
2021/11/08 16:17:05;;;;;;;57.05;30.88;;;;;;;;;;5026032;28;20017;-56
2021/11/08 16:19:31;;;;;;;49.78;24.73;;;;;;;;;;5024604;28;20029;-56